sensor_id;sensor_type;location;lat;lon;timestamp;temperature;humidity
13328;DHT22;6733;51.044;3.746;2023-06-22T00:02:01;20.20;99.90
13328;DHT22;6733;51.044;3.746;2023-06-22T00:04:28;20.20;99.90
13328;DHT22;6733;51.044;3.746;2023-06-22T00:06:54;20.10;99.90
13328;DHT22;6733;51.044;3.746;2023-06-22T00:09:19;20.10;99.90
13328;DHT22;6733;51.044;3.746;2023-06-22T00:11:45;20.10;99.90
13328;DHT22;6733;51.044;3.746;2023-06-22T00:14:11;20.10;99.90
13328;DHT22;6733;51.044;3.746;2023-06-22T00:16:37;20.00;99.90
13328;DHT22;6733;51.044;3.746;2023-06-22T00:19:04;20.00;99.90
13328;DHT22;6733;51.044;3.746;2023-06-22T00:21:30;20.00;99.90
13328;DHT22;6733;51.044;3.746;2023-06-22T00:23:56;19.90;99.90
13328;DHT22;6733;51.044;3.746;2023-06-22T00:26:23;19.90;99.90
13328;DHT22;6733;51.044;3.746;2023-06-22T00:28:49;19.90;99.90
13328;DHT22;6733;51.044;3.746;2023-06-22T00:31:15;19.90;99.90
13328;DHT22;6733;51.044;3.746;2023-06-22T00:33:41;19.80;99.90
13328;DHT22;6733;51.044;3.746;2023-06-22T00:36:08;19.80;99.90
13328;DHT22;6733;51.044;3.746;2023-06-22T00:38:34;19.80;99.90
13328;DHT22;6733;51.044;3.746;2023-06-22T00:41:00;19.80;99.90
13328;DHT22;6733;51.044;3.746;2023-06-22T00:43:26;19.70;99.90
13328;DHT22;6733;51.044;3.746;2023-06-22T00:45:52;19.70;99.90
13328;DHT22;6733;51.044;3.746;2023-06-22T00:48:22;19.70;99.90
13328;DHT22;6733;51.044;3.746;2023-06-22T00:50:48;19.60;99.90
13328;DHT22;6733;51.044;3.746;2023-06-22T00:53:16;19.60;99.90
13328;DHT22;6733;51.044;3.746;2023-06-22T00:55:44;19.60;99.90
13328;DHT22;6733;51.044;3.746;2023-06-22T00:58:13;19.50;99.90
13328;DHT22;6733;51.044;3.746;2023-06-22T01:00:40;19.60;99.90
13328;DHT22;6733;51.044;3.746;2023-06-22T01:03:07;19.50;99.90
13328;DHT22;6733;51.044;3.746;2023-06-22T01:05:37;19.50;99.90
13328;DHT22;6733;51.044;3.746;2023-06-22T01:11:20;19.40;99.90
13328;DHT22;6733;51.044;3.746;2023-06-22T01:16:23;19.40;99.90
13328;DHT22;6733;51.044;3.746;2023-06-22T01:18:52;19.40;99.90
13328;DHT22;6733;51.044;3.746;2023-06-22T01:21:20;19.40;99.90
13328;DHT22;6733;51.044;3.746;2023-06-22T01:29:32;19.30;99.90
13328;DHT22;6733;51.044;3.746;2023-06-22T01:31:59;19.30;99.90
13328;DHT22;6733;51.044;3.746;2023-06-22T01:34:26;19.30;99.90
13328;DHT22;6733;51.044;3.746;2023-06-22T01:36:53;19.30;99.90
13328;DHT22;6733;51.044;3.746;2023-06-22T01:39:21;19.30;99.90
13328;DHT22;6733;51.044;3.746;2023-06-22T01:41:48;19.30;99.90
13328;DHT22;6733;51.044;3.746;2023-06-22T01:44:14;19.20;99.90
13328;DHT22;6733;51.044;3.746;2023-06-22T01:46:41;19.30;99.90
13328;DHT22;6733;51.044;3.746;2023-06-22T01:49:08;19.20;99.90
13328;DHT22;6733;51.044;3.746;2023-06-22T01:51:34;19.20;99.90
13328;DHT22;6733;51.044;3.746;2023-06-22T01:54:00;19.20;99.90
13328;DHT22;6733;51.044;3.746;2023-06-22T01:56:26;19.20;99.90
13328;DHT22;6733;51.044;3.746;2023-06-22T01:59:07;19.20;99.90
13328;DHT22;6733;51.044;3.746;2023-06-22T02:01:43;19.20;99.90
13328;DHT22;6733;51.044;3.746;2023-06-22T02:04:19;19.20;99.90
13328;DHT22;6733;51.044;3.746;2023-06-22T02:06:47;19.10;99.90
13328;DHT22;6733;51.044;3.746;2023-06-22T02:09:17;19.10;99.90
13328;DHT22;6733;51.044;3.746;2023-06-22T02:11:46;19.10;99.90
13328;DHT22;6733;51.044;3.746;2023-06-22T02:14:14;19.00;99.90
13328;DHT22;6733;51.044;3.746;2023-06-22T02:16:42;19.00;99.90
13328;DHT22;6733;51.044;3.746;2023-06-22T02:19:08;19.00;99.90
13328;DHT22;6733;51.044;3.746;2023-06-22T02:21:34;19.00;99.90
13328;DHT22;6733;51.044;3.746;2023-06-22T02:24:01;19.00;99.90
13328;DHT22;6733;51.044;3.746;2023-06-22T02:26:27;19.00;99.90
13328;DHT22;6733;51.044;3.746;2023-06-22T02:28:53;19.00;99.90
13328;DHT22;6733;51.044;3.746;2023-06-22T02:31:19;19.00;99.90
13328;DHT22;6733;51.044;3.746;2023-06-22T02:33:46;19.00;99.90
13328;DHT22;6733;51.044;3.746;2023-06-22T02:36:36;19.00;99.90
13328;DHT22;6733;51.044;3.746;2023-06-22T02:39:28;18.90;99.90
13328;DHT22;6733;51.044;3.746;2023-06-22T02:42:19;18.90;99.90
13328;DHT22;6733;51.044;3.746;2023-06-22T02:45:12;18.90;99.90
13328;DHT22;6733;51.044;3.746;2023-06-22T02:48:03;19.00;99.90
13328;DHT22;6733;51.044;3.746;2023-06-22T02:50:54;18.90;99.90
13328;DHT22;6733;51.044;3.746;2023-06-22T02:53:45;18.90;99.90
13328;DHT22;6733;51.044;3.746;2023-06-22T02:56:36;18.90;99.90
13328;DHT22;6733;51.044;3.746;2023-06-22T02:59:03;18.90;99.90
13328;DHT22;6733;51.044;3.746;2023-06-22T03:01:29;18.90;99.90
13328;DHT22;6733;51.044;3.746;2023-06-22T03:04:04;18.90;99.90
13328;DHT22;6733;51.044;3.746;2023-06-22T03:06:30;18.90;99.90
13328;DHT22;6733;51.044;3.746;2023-06-22T03:09:00;18.90;99.90
13328;DHT22;6733;51.044;3.746;2023-06-22T03:11:26;18.90;99.90
13328;DHT22;6733;51.044;3.746;2023-06-22T03:13:52;18.90;99.90
13328;DHT22;6733;51.044;3.746;2023-06-22T03:16:19;18.90;99.90
13328;DHT22;6733;51.044;3.746;2023-06-22T03:18:45;18.90;99.90
13328;DHT22;6733;51.044;3.746;2023-06-22T03:21:11;18.90;99.90
13328;DHT22;6733;51.044;3.746;2023-06-22T03:23:37;18.80;99.90
13328;DHT22;6733;51.044;3.746;2023-06-22T03:26:03;18.90;99.90
13328;DHT22;6733;51.044;3.746;2023-06-22T03:28:29;18.90;99.90
13328;DHT22;6733;51.044;3.746;2023-06-22T03:30:57;18.80;99.90
13328;DHT22;6733;51.044;3.746;2023-06-22T03:33:24;18.80;99.90
13328;DHT22;6733;51.044;3.746;2023-06-22T03:35:49;18.80;99.90
13328;DHT22;6733;51.044;3.746;2023-06-22T03:38:16;18.80;99.90
13328;DHT22;6733;51.044;3.746;2023-06-22T03:40:43;18.80;99.90
13328;DHT22;6733;51.044;3.746;2023-06-22T03:43:09;18.80;99.90
13328;DHT22;6733;51.044;3.746;2023-06-22T03:45:35;18.90;99.90
13328;DHT22;6733;51.044;3.746;2023-06-22T03:48:01;18.90;99.90
13328;DHT22;6733;51.044;3.746;2023-06-22T03:50:27;18.90;99.90
13328;DHT22;6733;51.044;3.746;2023-06-22T03:52:53;18.90;99.90
13328;DHT22;6733;51.044;3.746;2023-06-22T03:55:20;19.00;99.90
13328;DHT22;6733;51.044;3.746;2023-06-22T03:57:46;19.00;99.90
13328;DHT22;6733;51.044;3.746;2023-06-22T04:00:13;19.10;99.90
13328;DHT22;6733;51.044;3.746;2023-06-22T04:02:39;19.10;99.90
13328;DHT22;6733;51.044;3.746;2023-06-22T04:05:05;19.10;99.90
13328;DHT22;6733;51.044;3.746;2023-06-22T04:07:31;19.20;99.90
13328;DHT22;6733;51.044;3.746;2023-06-22T04:09:57;19.20;99.90
13328;DHT22;6733;51.044;3.746;2023-06-22T04:12:23;19.30;99.90
13328;DHT22;6733;51.044;3.746;2023-06-22T04:14:49;19.30;99.90
13328;DHT22;6733;51.044;3.746;2023-06-22T04:17:15;19.30;99.90
13328;DHT22;6733;51.044;3.746;2023-06-22T04:19:43;19.30;99.90
13328;DHT22;6733;51.044;3.746;2023-06-22T04:22:09;19.40;99.90
13328;DHT22;6733;51.044;3.746;2023-06-22T04:24:35;19.40;99.90
13328;DHT22;6733;51.044;3.746;2023-06-22T04:27:02;19.40;99.90
13328;DHT22;6733;51.044;3.746;2023-06-22T04:29:31;19.50;99.90
13328;DHT22;6733;51.044;3.746;2023-06-22T04:31:58;19.50;99.90
13328;DHT22;6733;51.044;3.746;2023-06-22T04:34:29;19.50;99.90
13328;DHT22;6733;51.044;3.746;2023-06-22T04:36:55;19.60;99.90
13328;DHT22;6733;51.044;3.746;2023-06-22T04:39:21;19.60;99.90
13328;DHT22;6733;51.044;3.746;2023-06-22T04:41:47;19.70;99.90
13328;DHT22;6733;51.044;3.746;2023-06-22T04:44:15;19.70;99.90
13328;DHT22;6733;51.044;3.746;2023-06-22T04:46:55;19.80;99.90
13328;DHT22;6733;51.044;3.746;2023-06-22T04:49:26;19.90;99.90
13328;DHT22;6733;51.044;3.746;2023-06-22T04:52:07;19.90;99.90
13328;DHT22;6733;51.044;3.746;2023-06-22T04:54:35;20.00;99.90
13328;DHT22;6733;51.044;3.746;2023-06-22T04:57:11;20.10;99.90
13328;DHT22;6733;51.044;3.746;2023-06-22T04:59:38;20.20;99.90
13328;DHT22;6733;51.044;3.746;2023-06-22T05:02:07;20.30;99.90
13328;DHT22;6733;51.044;3.746;2023-06-22T05:04:34;20.40;99.90
13328;DHT22;6733;51.044;3.746;2023-06-22T05:07:07;20.40;99.90
13328;DHT22;6733;51.044;3.746;2023-06-22T05:09:33;20.50;99.90
13328;DHT22;6733;51.044;3.746;2023-06-22T05:12:00;20.70;99.90
13328;DHT22;6733;51.044;3.746;2023-06-22T05:14:28;20.80;99.90
13328;DHT22;6733;51.044;3.746;2023-06-22T05:16:54;21.00;99.90
13328;DHT22;6733;51.044;3.746;2023-06-22T05:19:25;21.20;99.90
13328;DHT22;6733;51.044;3.746;2023-06-22T05:21:51;21.30;99.90
13328;DHT22;6733;51.044;3.746;2023-06-22T05:24:17;21.50;99.90
13328;DHT22;6733;51.044;3.746;2023-06-22T05:26:43;21.70;99.90
13328;DHT22;6733;51.044;3.746;2023-06-22T05:29:09;21.80;99.90
13328;DHT22;6733;51.044;3.746;2023-06-22T05:31:35;21.90;99.90
13328;DHT22;6733;51.044;3.746;2023-06-22T05:34:01;22.10;99.90
13328;DHT22;6733;51.044;3.746;2023-06-22T05:36:27;22.10;99.90
13328;DHT22;6733;51.044;3.746;2023-06-22T05:38:53;22.20;99.90
13328;DHT22;6733;51.044;3.746;2023-06-22T05:41:19;22.20;99.90
13328;DHT22;6733;51.044;3.746;2023-06-22T05:43:45;22.20;99.90
13328;DHT22;6733;51.044;3.746;2023-06-22T05:46:10;22.20;99.90
13328;DHT22;6733;51.044;3.746;2023-06-22T05:48:36;22.20;99.90
13328;DHT22;6733;51.044;3.746;2023-06-22T05:51:02;22.30;99.90
13328;DHT22;6733;51.044;3.746;2023-06-22T05:53:28;22.30;99.90
13328;DHT22;6733;51.044;3.746;2023-06-22T05:55:54;22.30;99.90
13328;DHT22;6733;51.044;3.746;2023-06-22T05:58:20;22.40;99.90
13328;DHT22;6733;51.044;3.746;2023-06-22T06:00:47;22.40;99.90
13328;DHT22;6733;51.044;3.746;2023-06-22T06:03:13;22.50;99.90
13328;DHT22;6733;51.044;3.746;2023-06-22T06:05:43;22.50;99.90
13328;DHT22;6733;51.044;3.746;2023-06-22T06:08:10;22.60;99.90
13328;DHT22;6733;51.044;3.746;2023-06-22T06:10:37;22.70;99.90
13328;DHT22;6733;51.044;3.746;2023-06-22T06:13:03;22.90;99.90
13328;DHT22;6733;51.044;3.746;2023-06-22T06:15:31;23.00;99.90
13328;DHT22;6733;51.044;3.746;2023-06-22T06:17:57;23.10;99.90
13328;DHT22;6733;51.044;3.746;2023-06-22T06:20:25;23.20;99.90
13328;DHT22;6733;51.044;3.746;2023-06-22T06:22:53;23.20;99.90
13328;DHT22;6733;51.044;3.746;2023-06-22T06:25:19;23.30;99.90
13328;DHT22;6733;51.044;3.746;2023-06-22T06:27:48;23.40;99.90
13328;DHT22;6733;51.044;3.746;2023-06-22T06:30:16;23.50;99.90
13328;DHT22;6733;51.044;3.746;2023-06-22T06:32:43;23.60;99.90
13328;DHT22;6733;51.044;3.746;2023-06-22T06:35:11;23.70;99.90
13328;DHT22;6733;51.044;3.746;2023-06-22T06:37:40;23.70;99.90
13328;DHT22;6733;51.044;3.746;2023-06-22T06:40:10;23.80;99.90
13328;DHT22;6733;51.044;3.746;2023-06-22T06:42:41;23.90;99.90
13328;DHT22;6733;51.044;3.746;2023-06-22T06:45:11;24.00;99.90
13328;DHT22;6733;51.044;3.746;2023-06-22T06:47:38;24.10;99.90
13328;DHT22;6733;51.044;3.746;2023-06-22T06:50:06;24.10;99.90
13328;DHT22;6733;51.044;3.746;2023-06-22T06:52:32;24.30;99.90
13328;DHT22;6733;51.044;3.746;2023-06-22T06:54:59;24.30;99.90
13328;DHT22;6733;51.044;3.746;2023-06-22T06:57:25;24.40;99.90
13328;DHT22;6733;51.044;3.746;2023-06-22T06:59:57;24.60;99.90
13328;DHT22;6733;51.044;3.746;2023-06-22T07:02:24;24.70;99.90
13328;DHT22;6733;51.044;3.746;2023-06-22T07:04:50;24.70;99.90
13328;DHT22;6733;51.044;3.746;2023-06-22T07:07:16;24.80;99.90
13328;DHT22;6733;51.044;3.746;2023-06-22T07:09:42;24.90;99.90
13328;DHT22;6733;51.044;3.746;2023-06-22T07:12:09;24.90;99.90
13328;DHT22;6733;51.044;3.746;2023-06-22T07:14:35;25.00;99.90
13328;DHT22;6733;51.044;3.746;2023-06-22T07:17:01;25.10;99.90
13328;DHT22;6733;51.044;3.746;2023-06-22T07:19:27;25.10;99.90
13328;DHT22;6733;51.044;3.746;2023-06-22T07:21:54;25.10;99.90
13328;DHT22;6733;51.044;3.746;2023-06-22T07:24:21;25.00;99.90
13328;DHT22;6733;51.044;3.746;2023-06-22T07:26:47;25.10;99.90
13328;DHT22;6733;51.044;3.746;2023-06-22T07:29:14;25.10;99.90
13328;DHT22;6733;51.044;3.746;2023-06-22T07:31:40;25.20;99.90
13328;DHT22;6733;51.044;3.746;2023-06-22T07:34:06;25.20;99.90
13328;DHT22;6733;51.044;3.746;2023-06-22T07:36:32;25.30;99.90
13328;DHT22;6733;51.044;3.746;2023-06-22T07:39:00;25.40;99.90
13328;DHT22;6733;51.044;3.746;2023-06-22T07:41:26;25.50;99.90
13328;DHT22;6733;51.044;3.746;2023-06-22T07:43:52;25.50;99.90
13328;DHT22;6733;51.044;3.746;2023-06-22T07:46:18;25.60;99.90
13328;DHT22;6733;51.044;3.746;2023-06-22T07:48:44;25.70;99.90
13328;DHT22;6733;51.044;3.746;2023-06-22T07:51:10;25.80;99.90
13328;DHT22;6733;51.044;3.746;2023-06-22T07:53:43;25.90;99.90
13328;DHT22;6733;51.044;3.746;2023-06-22T07:56:13;25.90;99.90
13328;DHT22;6733;51.044;3.746;2023-06-22T07:58:39;26.10;99.90
13328;DHT22;6733;51.044;3.746;2023-06-22T08:01:06;26.10;99.90
13328;DHT22;6733;51.044;3.746;2023-06-22T08:03:32;26.10;99.90
13328;DHT22;6733;51.044;3.746;2023-06-22T08:05:58;26.20;99.90
13328;DHT22;6733;51.044;3.746;2023-06-22T08:08:24;26.30;99.90
13328;DHT22;6733;51.044;3.746;2023-06-22T08:10:51;26.20;99.90
13328;DHT22;6733;51.044;3.746;2023-06-22T08:13:17;26.00;99.90
13328;DHT22;6733;51.044;3.746;2023-06-22T08:15:43;25.90;99.90
13328;DHT22;6733;51.044;3.746;2023-06-22T08:18:09;25.80;99.90
13328;DHT22;6733;51.044;3.746;2023-06-22T08:20:35;25.80;99.90
13328;DHT22;6733;51.044;3.746;2023-06-22T08:23:02;26.00;99.90
13328;DHT22;6733;51.044;3.746;2023-06-22T08:25:33;26.10;99.90
13328;DHT22;6733;51.044;3.746;2023-06-22T08:28:00;26.20;99.90
13328;DHT22;6733;51.044;3.746;2023-06-22T08:30:27;26.00;99.90
13328;DHT22;6733;51.044;3.746;2023-06-22T08:32:53;26.10;99.90
13328;DHT22;6733;51.044;3.746;2023-06-22T08:35:21;26.10;99.90
13328;DHT22;6733;51.044;3.746;2023-06-22T08:37:47;26.00;99.90
13328;DHT22;6733;51.044;3.746;2023-06-22T08:40:17;26.10;99.90
13328;DHT22;6733;51.044;3.746;2023-06-22T08:42:45;26.20;99.90
13328;DHT22;6733;51.044;3.746;2023-06-22T08:45:12;26.20;99.90
13328;DHT22;6733;51.044;3.746;2023-06-22T08:47:39;26.20;99.90
13328;DHT22;6733;51.044;3.746;2023-06-22T08:50:10;26.10;99.90
13328;DHT22;6733;51.044;3.746;2023-06-22T08:52:38;26.10;99.90
13328;DHT22;6733;51.044;3.746;2023-06-22T08:55:08;26.10;99.90
13328;DHT22;6733;51.044;3.746;2023-06-22T08:57:34;26.00;99.90
13328;DHT22;6733;51.044;3.746;2023-06-22T09:00:04;26.00;99.90
13328;DHT22;6733;51.044;3.746;2023-06-22T09:02:31;25.90;99.90
13328;DHT22;6733;51.044;3.746;2023-06-22T09:04:57;25.80;99.90
13328;DHT22;6733;51.044;3.746;2023-06-22T09:07:24;25.80;99.90
13328;DHT22;6733;51.044;3.746;2023-06-22T09:09:52;25.60;99.90
13328;DHT22;6733;51.044;3.746;2023-06-22T09:12:19;25.60;99.90
13328;DHT22;6733;51.044;3.746;2023-06-22T09:14:46;25.40;99.90
13328;DHT22;6733;51.044;3.746;2023-06-22T09:17:13;25.30;99.90
13328;DHT22;6733;51.044;3.746;2023-06-22T09:19:39;25.20;99.90
13328;DHT22;6733;51.044;3.746;2023-06-22T09:22:05;25.00;99.90
13328;DHT22;6733;51.044;3.746;2023-06-22T09:24:34;24.90;99.90
13328;DHT22;6733;51.044;3.746;2023-06-22T09:27:00;24.80;99.90
13328;DHT22;6733;51.044;3.746;2023-06-22T09:29:26;24.70;99.90
13328;DHT22;6733;51.044;3.746;2023-06-22T09:31:52;24.60;99.90
13328;DHT22;6733;51.044;3.746;2023-06-22T09:34:21;24.60;99.90
13328;DHT22;6733;51.044;3.746;2023-06-22T09:36:47;24.50;99.90
13328;DHT22;6733;51.044;3.746;2023-06-22T09:39:13;24.40;99.90
13328;DHT22;6733;51.044;3.746;2023-06-22T09:41:40;24.30;99.90
13328;DHT22;6733;51.044;3.746;2023-06-22T09:44:06;24.20;99.90
13328;DHT22;6733;51.044;3.746;2023-06-22T09:46:31;24.10;99.90
13328;DHT22;6733;51.044;3.746;2023-06-22T09:48:58;24.10;99.90
13328;DHT22;6733;51.044;3.746;2023-06-22T09:51:24;24.00;99.90
13328;DHT22;6733;51.044;3.746;2023-06-22T09:53:50;23.90;99.90
13328;DHT22;6733;51.044;3.746;2023-06-22T09:56:16;23.80;99.90
13328;DHT22;6733;51.044;3.746;2023-06-22T09:58:44;23.80;99.90
13328;DHT22;6733;51.044;3.746;2023-06-22T10:01:12;23.80;99.90
13328;DHT22;6733;51.044;3.746;2023-06-22T10:03:40;23.80;99.90
13328;DHT22;6733;51.044;3.746;2023-06-22T10:06:07;23.70;99.90
13328;DHT22;6733;51.044;3.746;2023-06-22T10:08:35;23.70;99.90
13328;DHT22;6733;51.044;3.746;2023-06-22T10:11:01;23.70;99.90
13328;DHT22;6733;51.044;3.746;2023-06-22T10:13:27;23.60;99.90
13328;DHT22;6733;51.044;3.746;2023-06-22T10:15:53;23.50;99.90
13328;DHT22;6733;51.044;3.746;2023-06-22T10:18:19;23.50;99.90
13328;DHT22;6733;51.044;3.746;2023-06-22T10:20:48;23.40;99.90
13328;DHT22;6733;51.044;3.746;2023-06-22T10:23:17;23.40;99.90
13328;DHT22;6733;51.044;3.746;2023-06-22T10:25:42;23.30;99.90
13328;DHT22;6733;51.044;3.746;2023-06-22T10:28:08;23.20;99.90
13328;DHT22;6733;51.044;3.746;2023-06-22T10:30:34;23.10;99.90
13328;DHT22;6733;51.044;3.746;2023-06-22T10:33:00;23.10;99.90
13328;DHT22;6733;51.044;3.746;2023-06-22T10:35:26;23.00;99.90
13328;DHT22;6733;51.044;3.746;2023-06-22T10:37:53;23.00;99.90
13328;DHT22;6733;51.044;3.746;2023-06-22T10:40:20;23.20;99.90
13328;DHT22;6733;51.044;3.746;2023-06-22T10:42:46;23.30;99.90
13328;DHT22;6733;51.044;3.746;2023-06-22T10:45:12;23.40;99.90
13328;DHT22;6733;51.044;3.746;2023-06-22T10:47:39;23.50;99.90
13328;DHT22;6733;51.044;3.746;2023-06-22T10:50:08;23.50;99.90
13328;DHT22;6733;51.044;3.746;2023-06-22T10:52:34;23.60;99.90
13328;DHT22;6733;51.044;3.746;2023-06-22T10:55:00;23.70;99.90
13328;DHT22;6733;51.044;3.746;2023-06-22T10:57:26;23.80;99.90
13328;DHT22;6733;51.044;3.746;2023-06-22T10:59:52;23.80;99.90
13328;DHT22;6733;51.044;3.746;2023-06-22T11:02:19;23.80;99.90
13328;DHT22;6733;51.044;3.746;2023-06-22T11:04:45;23.90;99.90
13328;DHT22;6733;51.044;3.746;2023-06-22T11:07:12;24.00;99.90
13328;DHT22;6733;51.044;3.746;2023-06-22T11:09:38;24.10;99.90
13328;DHT22;6733;51.044;3.746;2023-06-22T11:12:06;24.10;99.90
13328;DHT22;6733;51.044;3.746;2023-06-22T11:14:32;24.10;99.90
13328;DHT22;6733;51.044;3.746;2023-06-22T11:16:59;24.00;99.90
13328;DHT22;6733;51.044;3.746;2023-06-22T11:19:26;23.90;99.90
13328;DHT22;6733;51.044;3.746;2023-06-22T11:21:52;23.90;99.90
13328;DHT22;6733;51.044;3.746;2023-06-22T11:24:18;23.80;99.90
13328;DHT22;6733;51.044;3.746;2023-06-22T11:26:44;23.70;99.90
13328;DHT22;6733;51.044;3.746;2023-06-22T11:29:10;23.60;99.90
13328;DHT22;6733;51.044;3.746;2023-06-22T11:31:37;23.60;99.90
13328;DHT22;6733;51.044;3.746;2023-06-22T11:34:04;23.50;99.90
13328;DHT22;6733;51.044;3.746;2023-06-22T11:36:30;23.20;99.90
13328;DHT22;6733;51.044;3.746;2023-06-22T11:38:59;23.10;99.90
13328;DHT22;6733;51.044;3.746;2023-06-22T11:41:25;23.00;99.90
13328;DHT22;6733;51.044;3.746;2023-06-22T11:43:51;22.90;99.90
13328;DHT22;6733;51.044;3.746;2023-06-22T11:46:17;22.80;99.90
13328;DHT22;6733;51.044;3.746;2023-06-22T11:48:43;22.70;99.90
13328;DHT22;6733;51.044;3.746;2023-06-22T11:51:09;22.60;99.90
13328;DHT22;6733;51.044;3.746;2023-06-22T11:53:35;22.50;99.90
13328;DHT22;6733;51.044;3.746;2023-06-22T11:56:02;22.60;99.90
13328;DHT22;6733;51.044;3.746;2023-06-22T11:58:28;22.60;99.90
13328;DHT22;6733;51.044;3.746;2023-06-22T12:00:54;22.60;99.90
13328;DHT22;6733;51.044;3.746;2023-06-22T12:03:21;22.70;99.90
13328;DHT22;6733;51.044;3.746;2023-06-22T12:05:50;22.70;99.90
13328;DHT22;6733;51.044;3.746;2023-06-22T12:08:19;22.70;99.90
13328;DHT22;6733;51.044;3.746;2023-06-22T12:10:46;22.80;99.90
13328;DHT22;6733;51.044;3.746;2023-06-22T12:13:12;22.90;99.90
13328;DHT22;6733;51.044;3.746;2023-06-22T12:15:39;22.90;99.90
13328;DHT22;6733;51.044;3.746;2023-06-22T12:18:05;23.00;99.90
13328;DHT22;6733;51.044;3.746;2023-06-22T12:20:31;23.00;99.90
13328;DHT22;6733;51.044;3.746;2023-06-22T12:22:58;23.10;99.90
13328;DHT22;6733;51.044;3.746;2023-06-22T12:25:24;23.20;99.90
13328;DHT22;6733;51.044;3.746;2023-06-22T12:27:50;23.20;99.90
13328;DHT22;6733;51.044;3.746;2023-06-22T12:30:16;23.10;99.90
13328;DHT22;6733;51.044;3.746;2023-06-22T12:32:42;23.20;99.90
13328;DHT22;6733;51.044;3.746;2023-06-22T12:35:08;23.10;99.90
13328;DHT22;6733;51.044;3.746;2023-06-22T12:37:42;23.20;99.90
13328;DHT22;6733;51.044;3.746;2023-06-22T12:40:10;23.30;99.90
13328;DHT22;6733;51.044;3.746;2023-06-22T12:42:36;23.40;99.90
13328;DHT22;6733;51.044;3.746;2023-06-22T12:45:02;23.60;99.90
13328;DHT22;6733;51.044;3.746;2023-06-22T12:47:29;23.70;99.90
13328;DHT22;6733;51.044;3.746;2023-06-22T12:49:55;23.60;99.90
13328;DHT22;6733;51.044;3.746;2023-06-22T12:52:21;23.50;99.90
13328;DHT22;6733;51.044;3.746;2023-06-22T12:54:47;23.40;99.90
13328;DHT22;6733;51.044;3.746;2023-06-22T12:57:14;23.40;99.90
13328;DHT22;6733;51.044;3.746;2023-06-22T12:59:40;23.40;99.90
13328;DHT22;6733;51.044;3.746;2023-06-22T13:02:06;23.40;99.90
13328;DHT22;6733;51.044;3.746;2023-06-22T13:04:32;23.30;99.90
13328;DHT22;6733;51.044;3.746;2023-06-22T13:06:58;23.20;99.90
13328;DHT22;6733;51.044;3.746;2023-06-22T13:09:25;23.20;99.90
13328;DHT22;6733;51.044;3.746;2023-06-22T13:11:51;23.20;99.90
13328;DHT22;6733;51.044;3.746;2023-06-22T13:14:18;23.30;99.90
13328;DHT22;6733;51.044;3.746;2023-06-22T13:16:44;23.30;99.90
13328;DHT22;6733;51.044;3.746;2023-06-22T13:19:11;23.30;99.90
13328;DHT22;6733;51.044;3.746;2023-06-22T13:21:37;23.30;99.90
13328;DHT22;6733;51.044;3.746;2023-06-22T13:24:03;23.40;99.90
13328;DHT22;6733;51.044;3.746;2023-06-22T13:26:32;23.40;99.90
13328;DHT22;6733;51.044;3.746;2023-06-22T13:28:58;23.40;99.90
13328;DHT22;6733;51.044;3.746;2023-06-22T13:31:24;23.50;99.90
13328;DHT22;6733;51.044;3.746;2023-06-22T13:33:50;23.70;99.90
13328;DHT22;6733;51.044;3.746;2023-06-22T13:36:18;23.90;99.90
13328;DHT22;6733;51.044;3.746;2023-06-22T13:38:44;24.30;99.90
13328;DHT22;6733;51.044;3.746;2023-06-22T13:41:11;24.50;99.90
13328;DHT22;6733;51.044;3.746;2023-06-22T13:43:37;24.60;99.90
13328;DHT22;6733;51.044;3.746;2023-06-22T13:46:03;24.70;99.90
13328;DHT22;6733;51.044;3.746;2023-06-22T13:48:29;24.80;99.90
13328;DHT22;6733;51.044;3.746;2023-06-22T13:50:55;24.80;99.90
13328;DHT22;6733;51.044;3.746;2023-06-22T13:53:22;24.90;99.90
13328;DHT22;6733;51.044;3.746;2023-06-22T13:55:48;24.90;99.90
13328;DHT22;6733;51.044;3.746;2023-06-22T13:58:15;25.10;99.90
13328;DHT22;6733;51.044;3.746;2023-06-22T14:00:40;25.50;99.90
13328;DHT22;6733;51.044;3.746;2023-06-22T14:03:06;25.70;99.90
13328;DHT22;6733;51.044;3.746;2023-06-22T14:05:33;25.80;99.90
13328;DHT22;6733;51.044;3.746;2023-06-22T14:07:59;26.00;99.90
13328;DHT22;6733;51.044;3.746;2023-06-22T14:10:25;26.20;99.90
13328;DHT22;6733;51.044;3.746;2023-06-22T14:12:51;26.50;99.90
13328;DHT22;6733;51.044;3.746;2023-06-22T14:15:18;26.70;99.90
13328;DHT22;6733;51.044;3.746;2023-06-22T14:17:45;26.70;99.90
13328;DHT22;6733;51.044;3.746;2023-06-22T14:20:11;26.70;99.90
13328;DHT22;6733;51.044;3.746;2023-06-22T14:22:37;26.90;99.90
13328;DHT22;6733;51.044;3.746;2023-06-22T14:25:05;27.00;99.90
13328;DHT22;6733;51.044;3.746;2023-06-22T14:27:31;26.90;99.90
13328;DHT22;6733;51.044;3.746;2023-06-22T14:29:58;26.80;99.90
13328;DHT22;6733;51.044;3.746;2023-06-22T14:32:24;26.70;99.90
13328;DHT22;6733;51.044;3.746;2023-06-22T14:34:51;26.60;99.90
13328;DHT22;6733;51.044;3.746;2023-06-22T14:37:17;26.70;99.90
13328;DHT22;6733;51.044;3.746;2023-06-22T14:39:43;26.80;99.90
13328;DHT22;6733;51.044;3.746;2023-06-22T14:42:09;27.30;99.90
13328;DHT22;6733;51.044;3.746;2023-06-22T14:44:35;27.70;99.90
13328;DHT22;6733;51.044;3.746;2023-06-22T14:47:02;27.80;99.90
13328;DHT22;6733;51.044;3.746;2023-06-22T14:49:28;27.80;99.90
13328;DHT22;6733;51.044;3.746;2023-06-22T14:51:55;28.00;99.90
13328;DHT22;6733;51.044;3.746;2023-06-22T14:54:21;28.10;99.90
13328;DHT22;6733;51.044;3.746;2023-06-22T14:56:48;28.00;99.90
13328;DHT22;6733;51.044;3.746;2023-06-22T14:59:14;27.60;99.90
13328;DHT22;6733;51.044;3.746;2023-06-22T15:01:41;27.50;99.90
13328;DHT22;6733;51.044;3.746;2023-06-22T15:04:07;27.50;99.90
13328;DHT22;6733;51.044;3.746;2023-06-22T15:06:33;27.40;99.90
13328;DHT22;6733;51.044;3.746;2023-06-22T15:09:00;27.40;99.90
13328;DHT22;6733;51.044;3.746;2023-06-22T15:11:26;27.00;99.90
13328;DHT22;6733;51.044;3.746;2023-06-22T15:13:52;26.60;99.90
13328;DHT22;6733;51.044;3.746;2023-06-22T15:16:19;26.50;99.90
13328;DHT22;6733;51.044;3.746;2023-06-22T15:18:45;26.00;99.90
13328;DHT22;6733;51.044;3.746;2023-06-22T15:21:12;26.00;99.90
13328;DHT22;6733;51.044;3.746;2023-06-22T15:23:38;26.00;99.90
13328;DHT22;6733;51.044;3.746;2023-06-22T15:26:04;25.90;99.90
13328;DHT22;6733;51.044;3.746;2023-06-22T15:28:33;26.20;99.90
13328;DHT22;6733;51.044;3.746;2023-06-22T15:31:02;27.00;99.90
13328;DHT22;6733;51.044;3.746;2023-06-22T15:33:29;27.70;99.90
13328;DHT22;6733;51.044;3.746;2023-06-22T15:35:57;27.70;99.90
13328;DHT22;6733;51.044;3.746;2023-06-22T15:38:23;27.40;99.90
13328;DHT22;6733;51.044;3.746;2023-06-22T15:40:49;27.30;99.90
13328;DHT22;6733;51.044;3.746;2023-06-22T15:43:15;27.30;99.90
13328;DHT22;6733;51.044;3.746;2023-06-22T15:45:42;26.90;99.90
13328;DHT22;6733;51.044;3.746;2023-06-22T15:48:08;26.70;99.90
13328;DHT22;6733;51.044;3.746;2023-06-22T15:50:34;26.50;99.90
13328;DHT22;6733;51.044;3.746;2023-06-22T15:53:00;26.40;99.90
13328;DHT22;6733;51.044;3.746;2023-06-22T15:55:26;26.20;99.90
13328;DHT22;6733;51.044;3.746;2023-06-22T15:57:53;26.00;99.90